Time,TemperatureF,DewpointF,PressureIn,WindDirection,WindDirectionDegrees,WindSpeedMPH,WindSpeedGustMPH,Humidity,HourlyPrecipIn,Conditions,Clouds,dailyrainin,SoftwareType,DateUTC
2013-04-12 00:11:00,34.5,32.0,31.02,SE,126,0.0,1.0,89,0.00,,,0.00,weatherlink.com 1.10,2013-04-12 04:11:00,
2013-04-12 00:26:00,34.6,31.0,31.03,SE,125,0.0,1.0,86,0.00,,,0.00,weatherlink.com 1.10,2013-04-12 04:26:00,
2013-04-12 00:41:00,35.0,30.0,31.04,NNW,345,0.0,2.0,83,0.00,,,0.00,weatherlink.com 1.10,2013-04-12 04:41:00,
2013-04-12 00:56:00,36.0,29.0,31.03,ESE,122,3.0,8.0,77,0.00,,,0.00,weatherlink.com 1.10,2013-04-12 04:56:00,
2013-04-12 01:11:00,36.6,28.0,31.03,ENE,60,0.0,6.0,72,0.00,,,0.00,weatherlink.com 1.10,2013-04-12 05:11:00,
2013-04-12 01:26:00,36.9,28.0,31.03,South,177,0.0,4.0,71,0.00,,,0.00,weatherlink.com 1.10,2013-04-12 05:26:00,
2013-04-12 01:41:00,36.8,27.0,31.03,ENE,76,1.0,3.0,68,0.00,,,0.00,weatherlink.com 1.10,2013-04-12 05:41:00,
2013-04-12 01:56:00,36.1,27.0,31.02,SE,131,3.0,6.0,69,0.00,,,0.00,weatherlink.com 1.10,2013-04-12 05:56:00,
2013-04-12 02:11:00,35.3,27.0,31.02,ENE,78,1.0,5.0,72,0.00,,,0.00,weatherlink.com 1.10,2013-04-12 06:11:00,
2013-04-12 02:26:00,34.9,27.0,31.04,North,360,0.0,12.0,74,0.00,,,0.00,weatherlink.com 1.10,2013-04-12 06:26:00,
2013-04-12 02:41:00,34.8,27.0,31.03,WNW,301,2.0,10.0,74,0.00,,,0.00,weatherlink.com 1.10,2013-04-12 06:41:00,
2013-04-12 02:57:00,34.4,28.0,31.02,ESE,104,1.0,13.0,78,0.01,,,0.01,weatherlink.com 1.10,2013-04-12 06:57:00,
2013-04-12 03:12:00,33.6,28.0,31.03,SE,131,0.0,8.0,81,0.01,,,0.01,weatherlink.com 1.10,2013-04-12 07:12:00,
2013-04-12 03:27:00,33.4,29.0,31.03,East,79,2.0,9.0,82,0.01,,,0.01,weatherlink.com 1.10,2013-04-12 07:27:00,
2013-04-12 03:42:00,33.2,29.0,31.03,East,79,3.0,12.0,85,0.01,,,0.01,weatherlink.com 1.10,2013-04-12 07:42:00,
2013-04-12 03:57:00,32.7,29.0,31.03,SE,132,2.0,8.0,87,0.01,,,0.02,weatherlink.com 1.10,2013-04-12 07:57:00,
2013-04-12 04:12:00,32.5,29.0,31.04,NNW,328,1.0,12.0,88,0.01,,,0.02,weatherlink.com 1.10,2013-04-12 08:12:00,
2013-04-12 04:27:00,32.3,30.0,31.04,NE,56,0.0,11.0,90,0.02,,,0.03,weatherlink.com 1.10,2013-04-12 08:27:00,
2013-04-12 04:42:00,32.1,30.0,31.04,NNW,347,1.0,12.0,91,0.02,,,0.03,weatherlink.com 1.10,2013-04-12 08:42:00,
2013-04-12 04:57:00,31.8,30.0,31.02,ENE,70,0.0,10.0,92,0.01,,,0.03,weatherlink.com 1.10,2013-04-12 08:57:00,
2013-04-12 05:12:00,31.6,30.0,31.02,East,79,5.0,13.0,92,0.01,,,0.03,weatherlink.com 1.10,2013-04-12 09:12:00,
2013-04-12 05:27:00,31.4,29.0,31.04,NE,53,2.0,10.0,92,0.00,,,0.03,weatherlink.com 1.10,2013-04-12 09:27:00,
2013-04-12 05:42:00,31.2,29.0,31.04,ESE,105,2.0,13.0,92,0.00,,,0.03,weatherlink.com 1.10,2013-04-12 09:42:00,
2013-04-12 05:57:00,30.9,29.0,31.04,SE,136,5.0,13.0,93,0.00,,,0.03,weatherlink.com 1.10,2013-04-12 09:57:00,
2013-04-12 06:12:00,30.7,29.0,31.04,SSE,159,2.0,13.0,94,0.00,,,0.03,weatherlink.com 1.10,2013-04-12 10:12:00,
2013-04-12 06:27:00,30.6,29.0,31.05,NE,54,2.0,13.0,94,0.00,,,0.03,weatherlink.com 1.10,2013-04-12 10:27:00,
2013-04-12 06:42:00,30.5,29.0,31.05,East,91,4.0,9.0,94,0.00,,,0.03,weatherlink.com 1.10,2013-04-12 10:42:00,
2013-04-12 06:57:00,30.3,29.0,31.04,SSE,160,5.0,12.0,94,0.00,,,0.03,weatherlink.com 1.10,2013-04-12 10:57:00,
2013-04-12 07:12:00,30.1,29.0,31.04,ENE,60,5.0,12.0,94,0.00,,,0.03,weatherlink.com 1.10,2013-04-12 11:12:00,
2013-04-12 07:27:00,30.1,29.0,31.04,South,169,2.0,8.0,95,0.00,,,0.03,weatherlink.com 1.10,2013-04-12 11:27:00,
2013-04-12 07:42:00,30.0,29.0,31.03,ENE,65,5.0,6.0,94,0.00,,,0.03,weatherlink.com 1.10,2013-04-12 11:42:00,
2013-04-12 07:57:00,29.9,28.0,31.03,ESE,121,4.0,10.0,94,0.00,,,0.03,weatherlink.com 1.10,2013-04-12 11:57:00,
2013-04-12 08:12:00,30.0,29.0,31.03,East,80,2.0,11.0,94,0.00,,,0.03,weatherlink.com 1.10,2013-04-12 12:12:00,
2013-04-12 08:27:00,30.0,29.0,31.02,ESE,123,8.0,8.0,94,0.00,,,0.03,weatherlink.com 1.10,2013-04-12 12:27:00,
2013-04-12 08:42:00,30.1,29.0,31.00,SE,143,6.0,15.0,94,0.00,,,0.03,weatherlink.com 1.10,2013-04-12 12:42:00,
2013-04-12 08:57:00,30.1,29.0,31.01,SE,139,3.0,13.0,94,0.00,,,0.03,weatherlink.com 1.10,2013-04-12 12:57:00,
2013-04-12 09:12:00,30.2,29.0,31.01,East,101,5.0,12.0,94,0.00,,,0.03,weatherlink.com 1.10,2013-04-12 13:12:00,
2013-04-12 09:28:00,30.3,29.0,30.98,NNE,26,1.0,12.0,94,0.00,,,0.03,weatherlink.com 1.10,2013-04-12 13:28:00,
2013-04-12 09:43:00,30.4,29.0,30.96,ENE,58,0.0,14.0,93,0.00,,,0.03,weatherlink.com 1.10,2013-04-12 13:43:00,
2013-04-12 09:58:00,30.5,29.0,30.96,NE,39,2.0,11.0,94,0.00,,,0.03,weatherlink.com 1.10,2013-04-12 13:58:00,
2013-04-12 10:13:00,30.7,29.0,30.96,East,79,3.0,11.0,94,0.00,,,0.03,weatherlink.com 1.10,2013-04-12 14:13:00,
2013-04-12 10:28:00,30.9,29.0,30.95,SE,133,6.0,14.0,94,0.00,,,0.03,weatherlink.com 1.10,2013-04-12 14:28:00,
2013-04-12 10:43:00,31.1,30.0,30.95,ENE,71,5.0,18.0,95,0.00,,,0.03,weatherlink.com 1.10,2013-04-12 14:43:00,
2013-04-12 10:58:00,31.3,30.0,30.95,East,99,2.0,15.0,95,0.00,,,0.03,weatherlink.com 1.10,2013-04-12 14:58:00,
2013-04-12 11:13:00,31.4,30.0,30.94,ESE,106,4.0,8.0,95,0.00,,,0.03,weatherlink.com 1.10,2013-04-12 15:13:00,
2013-04-12 11:28:00,31.5,30.0,30.93,SE,133,4.0,11.0,95,0.00,,,0.03,weatherlink.com 1.10,2013-04-12 15:28:00,
2013-04-12 11:43:00,31.4,30.0,30.95,South,176,5.0,15.0,95,0.00,,,0.03,weatherlink.com 1.10,2013-04-12 15:43:00,
2013-04-12 11:58:00,31.4,30.0,30.92,ENE,60,9.0,13.0,95,0.00,,,0.03,weatherlink.com 1.10,2013-04-12 15:58:00,
2013-04-12 12:13:00,31.5,30.0,30.89,SE,131,11.0,16.0,95,0.00,,,0.03,weatherlink.com 1.10,2013-04-12 16:13:00,
2013-04-12 12:28:00,31.3,30.0,30.90,East,97,5.0,13.0,95,0.00,,,0.03,weatherlink.com 1.10,2013-04-12 16:28:00,
2013-04-12 12:43:00,31.6,30.0,30.92,ESE,105,2.0,14.0,95,0.00,,,0.03,weatherlink.com 1.10,2013-04-12 16:43:00,
2013-04-12 12:58:00,31.6,30.0,30.93,ESE,103,6.0,12.0,95,0.00,,,0.03,weatherlink.com 1.10,2013-04-12 16:58:00,
2013-04-12 13:13:00,31.6,30.0,30.90,SE,146,2.0,9.0,95,0.00,,,0.03,weatherlink.com 1.10,2013-04-12 17:13:00,
2013-04-12 13:28:00,31.6,30.0,30.88,East,89,6.0,11.0,95,0.00,,,0.03,weatherlink.com 1.10,2013-04-12 17:28:00,
2013-04-12 13:43:00,31.6,30.0,30.88,SW,231,6.0,12.0,95,0.00,,,0.03,weatherlink.com 1.10,2013-04-12 17:43:00,
2013-04-12 13:58:00,31.4,30.0,30.89,SW,231,5.0,11.0,95,0.00,,,0.03,weatherlink.com 1.10,2013-04-12 17:58:00,
2013-04-12 14:13:00,31.4,30.0,30.87,SW,231,2.0,7.0,96,0.00,,,0.03,weatherlink.com 1.10,2013-04-12 18:13:00,
2013-04-12 14:28:00,31.5,31.0,30.86,SW,231,3.0,11.0,96,0.00,,,0.03,weatherlink.com 1.10,2013-04-12 18:28:00,
2013-04-12 15:28:00,31.9,31.0,30.84,SW,231,1.0,6.0,97,0.00,,,0.03,weatherlink.com 1.10,2013-04-12 19:28:00,
2013-04-12 15:43:00,31.8,31.0,30.84,SW,231,1.0,7.0,97,0.00,,,0.03,weatherlink.com 1.10,2013-04-12 19:43:00,
2013-04-12 15:58:00,31.8,31.0,30.83,SW,231,6.0,6.0,97,0.00,,,0.03,weatherlink.com 1.10,2013-04-12 19:58:00,
2013-04-12 16:13:00,31.7,31.0,30.82,SW,231,0.0,10.0,97,0.00,,,0.03,weatherlink.com 1.10,2013-04-12 20:13:00,
2013-04-12 16:28:00,31.8,31.0,30.81,SW,231,1.0,9.0,97,0.00,,,0.03,weatherlink.com 1.10,2013-04-12 20:28:00,
2013-04-12 16:43:00,31.9,31.0,30.80,SW,231,1.0,8.0,97,0.00,,,0.03,weatherlink.com 1.10,2013-04-12 20:43:00,
2013-04-12 16:58:00,32.0,31.0,30.81,SW,231,1.0,10.0,96,0.00,,,0.03,weatherlink.com 1.10,2013-04-12 20:58:00,
2013-04-12 17:13:00,32.1,31.0,30.80,SW,231,4.0,7.0,97,0.00,,,0.03,weatherlink.com 1.10,2013-04-12 21:13:00,
2013-04-12 17:28:00,32.0,31.0,30.80,SW,231,3.0,5.0,97,0.00,,,0.03,weatherlink.com 1.10,2013-04-12 21:28:00,
2013-04-12 17:43:00,32.0,31.0,30.80,SW,231,2.0,6.0,97,0.00,,,0.03,weatherlink.com 1.10,2013-04-12 21:43:00,
2013-04-12 17:58:00,31.9,31.0,30.79,SW,231,5.0,7.0,97,0.00,,,0.03,weatherlink.com 1.10,2013-04-12 21:58:00,
2013-04-12 18:13:00,31.9,31.0,30.78,SW,231,1.0,5.0,97,0.00,,,0.03,weatherlink.com 1.10,2013-04-12 22:13:00,
2013-04-12 18:29:00,32.0,31.0,30.77,SW,231,3.0,8.0,97,0.00,,,0.03,weatherlink.com 1.10,2013-04-12 22:29:00,
2013-04-12 18:44:00,31.9,31.0,30.77,SW,231,2.0,10.0,97,0.00,,,0.03,weatherlink.com 1.10,2013-04-12 22:44:00,
2013-04-12 18:59:00,31.9,31.0,30.77,SW,231,0.0,8.0,97,0.00,,,0.03,weatherlink.com 1.10,2013-04-12 22:59:00,
2013-04-12 19:14:00,31.9,31.0,30.76,SW,231,2.0,6.0,97,0.00,,,0.03,weatherlink.com 1.10,2013-04-12 23:14:00,
2013-04-12 19:29:00,31.8,31.0,30.77,SW,231,1.0,7.0,97,0.00,,,0.03,weatherlink.com 1.10,2013-04-12 23:29:00,
2013-04-12 19:44:00,31.7,31.0,30.77,SW,231,6.0,8.0,97,0.00,,,0.03,weatherlink.com 1.10,2013-04-12 23:44:00,
2013-04-12 19:59:00,31.8,31.0,30.77,SW,231,1.0,5.0,97,0.00,,,0.03,weatherlink.com 1.10,2013-04-12 23:59:00,
2013-04-12 20:14:00,31.6,31.0,30.76,SW,231,0.0,6.0,97,0.00,,,0.03,weatherlink.com 1.10,2013-04-13 00:14:00,
2013-04-12 20:29:00,31.6,31.0,30.76,SW,231,0.0,7.0,97,0.00,,,0.03,weatherlink.com 1.10,2013-04-13 00:29:00,
2013-04-12 20:44:00,31.6,31.0,30.75,SW,231,4.0,8.0,97,0.00,,,0.03,weatherlink.com 1.10,2013-04-13 00:44:00,
2013-04-12 20:59:00,31.5,31.0,30.77,SW,231,1.0,5.0,97,0.00,,,0.03,weatherlink.com 1.10,2013-04-13 00:59:00,
2013-04-12 21:14:00,31.5,31.0,30.76,SW,231,0.0,6.0,97,0.00,,,0.03,weatherlink.com 1.10,2013-04-13 01:14:00,
2013-04-12 21:29:00,31.4,31.0,30.75,SW,231,2.0,6.0,97,0.00,,,0.03,weatherlink.com 1.10,2013-04-13 01:29:00,
2013-04-12 21:44:00,31.4,31.0,30.75,SW,231,2.0,4.0,97,0.00,,,0.03,weatherlink.com 1.10,2013-04-13 01:44:00,
2013-04-12 21:59:00,31.4,31.0,30.74,SW,231,0.0,6.0,97,0.00,,,0.03,weatherlink.com 1.10,2013-04-13 01:59:00,
2013-04-12 22:14:00,31.5,31.0,30.75,SW,231,2.0,6.0,97,0.00,,,0.03,weatherlink.com 1.10,2013-04-13 02:14:00,
2013-04-12 22:29:00,31.4,31.0,30.75,SW,231,0.0,4.0,97,0.00,,,0.03,weatherlink.com 1.10,2013-04-13 02:29:00,
2013-04-12 22:44:00,31.5,31.0,30.73,SW,231,1.0,5.0,98,0.00,,,0.03,weatherlink.com 1.10,2013-04-13 02:44:00,
2013-04-12 22:59:00,31.4,31.0,30.73,SW,231,0.0,4.0,98,0.00,,,0.03,weatherlink.com 1.10,2013-04-13 02:59:00,
2013-04-12 23:14:00,31.5,31.0,30.73,SW,231,0.0,4.0,98,0.00,,,0.03,weatherlink.com 1.10,2013-04-13 03:14:00,
2013-04-12 23:29:00,31.6,31.0,30.74,SW,231,0.0,5.0,98,0.00,,,0.03,weatherlink.com 1.10,2013-04-13 03:29:00,
2013-04-12 23:44:00,31.6,31.0,30.74,SW,231,1.0,4.0,98,0.00,,,0.03,weatherlink.com 1.10,2013-04-13 03:44:00,
2013-04-12 23:59:00,31.6,31.0,30.73,SW,231,0.0,4.0,98,0.00,,,0.03,weatherlink.com 1.10,2013-04-13 03:59:00,